sensor_id;sensor_type;location;lat;lon;timestamp;temperature;humidity
16666;DHT22;8446;50.998;6.250;2023-08-12T00:00:47;20.00;99.90
16666;DHT22;8446;50.998;6.250;2023-08-12T00:03:15;19.90;99.90
16666;DHT22;8446;50.998;6.250;2023-08-12T00:05:42;19.90;99.90
16666;DHT22;8446;50.998;6.250;2023-08-12T00:08:10;19.80;99.90
16666;DHT22;8446;50.998;6.250;2023-08-12T00:10:38;20.00;99.90
16666;DHT22;8446;50.998;6.250;2023-08-12T00:13:05;19.90;99.90
16666;DHT22;8446;50.998;6.250;2023-08-12T00:15:32;20.00;99.90
16666;DHT22;8446;50.998;6.250;2023-08-12T00:18:00;20.00;99.90
16666;DHT22;8446;50.998;6.250;2023-08-12T00:20:29;20.00;99.90
16666;DHT22;8446;50.998;6.250;2023-08-12T00:22:56;20.00;99.90
16666;DHT22;8446;50.998;6.250;2023-08-12T00:25:23;19.90;99.90
16666;DHT22;8446;50.998;6.250;2023-08-12T00:27:52;19.90;99.90
16666;DHT22;8446;50.998;6.250;2023-08-12T00:30:19;19.80;99.90
16666;DHT22;8446;50.998;6.250;2023-08-12T00:32:45;19.70;99.90
16666;DHT22;8446;50.998;6.250;2023-08-12T00:35:12;19.60;99.90
16666;DHT22;8446;50.998;6.250;2023-08-12T00:37:39;19.50;99.90
16666;DHT22;8446;50.998;6.250;2023-08-12T00:40:07;19.50;99.90
16666;DHT22;8446;50.998;6.250;2023-08-12T00:42:34;19.50;99.90
16666;DHT22;8446;50.998;6.250;2023-08-12T00:45:02;19.50;99.90
16666;DHT22;8446;50.998;6.250;2023-08-12T00:47:29;19.30;99.90
16666;DHT22;8446;50.998;6.250;2023-08-12T00:49:57;19.50;99.90
16666;DHT22;8446;50.998;6.250;2023-08-12T00:52:25;19.50;99.90
16666;DHT22;8446;50.998;6.250;2023-08-12T00:54:52;19.50;99.90
16666;DHT22;8446;50.998;6.250;2023-08-12T00:57:20;19.50;99.90
16666;DHT22;8446;50.998;6.250;2023-08-12T00:59:48;19.50;99.90
16666;DHT22;8446;50.998;6.250;2023-08-12T01:02:17;19.60;99.90
16666;DHT22;8446;50.998;6.250;2023-08-12T01:04:44;19.60;99.90
16666;DHT22;8446;50.998;6.250;2023-08-12T01:07:10;19.60;99.90
16666;DHT22;8446;50.998;6.250;2023-08-12T01:09:38;19.60;99.90
16666;DHT22;8446;50.998;6.250;2023-08-12T01:12:12;19.70;99.90
16666;DHT22;8446;50.998;6.250;2023-08-12T01:14:45;19.60;99.90
16666;DHT22;8446;50.998;6.250;2023-08-12T01:17:14;19.60;99.90
16666;DHT22;8446;50.998;6.250;2023-08-12T01:19:43;19.60;99.90
16666;DHT22;8446;50.998;6.250;2023-08-12T01:22:11;19.70;99.90
16666;DHT22;8446;50.998;6.250;2023-08-12T01:24:41;19.80;99.90
16666;DHT22;8446;50.998;6.250;2023-08-12T01:27:09;19.80;99.90
16666;DHT22;8446;50.998;6.250;2023-08-12T01:29:39;19.80;99.90
16666;DHT22;8446;50.998;6.250;2023-08-12T01:32:11;19.80;99.90
16666;DHT22;8446;50.998;6.250;2023-08-12T01:34:43;19.80;99.90
16666;DHT22;8446;50.998;6.250;2023-08-12T01:37:17;19.80;99.90
16666;DHT22;8446;50.998;6.250;2023-08-12T01:39:47;19.70;99.90
16666;DHT22;8446;50.998;6.250;2023-08-12T01:42:16;19.80;99.90
16666;DHT22;8446;50.998;6.250;2023-08-12T01:44:45;19.80;99.90
16666;DHT22;8446;50.998;6.250;2023-08-12T01:47:12;19.80;99.90
16666;DHT22;8446;50.998;6.250;2023-08-12T01:49:38;19.70;99.90
16666;DHT22;8446;50.998;6.250;2023-08-12T01:52:05;19.70;99.90
16666;DHT22;8446;50.998;6.250;2023-08-12T01:54:32;19.70;99.90
16666;DHT22;8446;50.998;6.250;2023-08-12T01:57:02;19.70;99.90
16666;DHT22;8446;50.998;6.250;2023-08-12T01:59:30;19.80;99.90
16666;DHT22;8446;50.998;6.250;2023-08-12T02:01:57;19.80;99.90
16666;DHT22;8446;50.998;6.250;2023-08-12T02:04:26;19.70;99.90
16666;DHT22;8446;50.998;6.250;2023-08-12T02:06:53;19.70;99.90
16666;DHT22;8446;50.998;6.250;2023-08-12T02:09:19;19.70;99.90
16666;DHT22;8446;50.998;6.250;2023-08-12T02:11:47;19.70;99.90
16666;DHT22;8446;50.998;6.250;2023-08-12T02:14:15;19.70;99.90
16666;DHT22;8446;50.998;6.250;2023-08-12T02:16:42;19.70;99.90
16666;DHT22;8446;50.998;6.250;2023-08-12T02:19:08;19.80;99.90
16666;DHT22;8446;50.998;6.250;2023-08-12T02:21:35;19.90;99.90
16666;DHT22;8446;50.998;6.250;2023-08-12T02:24:02;19.90;99.90
16666;DHT22;8446;50.998;6.250;2023-08-12T02:26:30;19.80;99.90
16666;DHT22;8446;50.998;6.250;2023-08-12T02:28:57;19.80;99.90
16666;DHT22;8446;50.998;6.250;2023-08-12T02:31:25;19.90;99.90
16666;DHT22;8446;50.998;6.250;2023-08-12T02:33:52;19.80;99.90
16666;DHT22;8446;50.998;6.250;2023-08-12T02:36:18;19.90;99.90
16666;DHT22;8446;50.998;6.250;2023-08-12T02:38:45;20.00;99.90
16666;DHT22;8446;50.998;6.250;2023-08-12T02:41:12;19.90;99.90
16666;DHT22;8446;50.998;6.250;2023-08-12T02:43:39;19.90;99.90
16666;DHT22;8446;50.998;6.250;2023-08-12T02:46:06;20.10;99.90
16666;DHT22;8446;50.998;6.250;2023-08-12T02:48:34;20.00;99.90
16666;DHT22;8446;50.998;6.250;2023-08-12T02:51:02;20.10;99.90
16666;DHT22;8446;50.998;6.250;2023-08-12T02:53:28;20.10;99.90
16666;DHT22;8446;50.998;6.250;2023-08-12T02:55:55;20.00;99.90
16666;DHT22;8446;50.998;6.250;2023-08-12T02:58:22;20.00;99.90
16666;DHT22;8446;50.998;6.250;2023-08-12T03:00:49;19.90;99.90
16666;DHT22;8446;50.998;6.250;2023-08-12T03:03:16;19.90;99.90
16666;DHT22;8446;50.998;6.250;2023-08-12T03:05:46;20.00;99.90
16666;DHT22;8446;50.998;6.250;2023-08-12T03:08:14;20.00;99.90
16666;DHT22;8446;50.998;6.250;2023-08-12T03:10:45;20.00;99.90
16666;DHT22;8446;50.998;6.250;2023-08-12T03:13:12;20.00;99.90
16666;DHT22;8446;50.998;6.250;2023-08-12T03:15:39;20.00;99.90
16666;DHT22;8446;50.998;6.250;2023-08-12T03:18:07;19.80;99.90
16666;DHT22;8446;50.998;6.250;2023-08-12T03:20:34;19.80;99.90
16666;DHT22;8446;50.998;6.250;2023-08-12T03:23:02;19.90;99.90
16666;DHT22;8446;50.998;6.250;2023-08-12T03:25:29;19.80;99.90
16666;DHT22;8446;50.998;6.250;2023-08-12T03:27:56;19.80;99.90
16666;DHT22;8446;50.998;6.250;2023-08-12T03:30:22;19.90;99.90
16666;DHT22;8446;50.998;6.250;2023-08-12T03:32:51;19.80;99.90
16666;DHT22;8446;50.998;6.250;2023-08-12T03:35:19;19.80;99.90
16666;DHT22;8446;50.998;6.250;2023-08-12T03:37:45;19.80;99.90
16666;DHT22;8446;50.998;6.250;2023-08-12T03:40:14;19.80;99.90
16666;DHT22;8446;50.998;6.250;2023-08-12T03:42:40;19.80;99.90
16666;DHT22;8446;50.998;6.250;2023-08-12T03:45:08;19.70;99.90
16666;DHT22;8446;50.998;6.250;2023-08-12T03:47:35;19.40;99.90
16666;DHT22;8446;50.998;6.250;2023-08-12T03:50:02;19.10;99.90
16666;DHT22;8446;50.998;6.250;2023-08-12T03:52:29;19.10;99.90
16666;DHT22;8446;50.998;6.250;2023-08-12T03:54:55;19.10;99.90
16666;DHT22;8446;50.998;6.250;2023-08-12T03:57:24;19.10;99.90
16666;DHT22;8446;50.998;6.250;2023-08-12T03:59:50;19.20;99.90
16666;DHT22;8446;50.998;6.250;2023-08-12T04:02:17;19.20;99.90
16666;DHT22;8446;50.998;6.250;2023-08-12T04:04:43;19.30;99.90
16666;DHT22;8446;50.998;6.250;2023-08-12T04:07:10;19.30;99.90
16666;DHT22;8446;50.998;6.250;2023-08-12T04:09:37;19.40;99.90
16666;DHT22;8446;50.998;6.250;2023-08-12T04:12:04;19.50;99.90
16666;DHT22;8446;50.998;6.250;2023-08-12T04:14:32;19.50;99.90
16666;DHT22;8446;50.998;6.250;2023-08-12T04:16:58;19.50;99.90
16666;DHT22;8446;50.998;6.250;2023-08-12T04:19:25;19.50;99.90
16666;DHT22;8446;50.998;6.250;2023-08-12T04:21:52;19.50;99.90
16666;DHT22;8446;50.998;6.250;2023-08-12T04:24:19;19.60;99.90
16666;DHT22;8446;50.998;6.250;2023-08-12T04:26:46;19.70;99.90
16666;DHT22;8446;50.998;6.250;2023-08-12T04:29:12;19.80;99.90
16666;DHT22;8446;50.998;6.250;2023-08-12T04:31:41;19.70;99.90
16666;DHT22;8446;50.998;6.250;2023-08-12T04:34:08;19.60;99.90
16666;DHT22;8446;50.998;6.250;2023-08-12T04:36:35;19.80;99.90
16666;DHT22;8446;50.998;6.250;2023-08-12T04:39:02;19.80;99.90
16666;DHT22;8446;50.998;6.250;2023-08-12T04:41:29;19.70;99.90
16666;DHT22;8446;50.998;6.250;2023-08-12T04:43:56;19.70;99.90
16666;DHT22;8446;50.998;6.250;2023-08-12T04:46:23;19.70;99.90
16666;DHT22;8446;50.998;6.250;2023-08-12T04:48:51;19.80;99.90
16666;DHT22;8446;50.998;6.250;2023-08-12T04:51:18;19.80;99.90
16666;DHT22;8446;50.998;6.250;2023-08-12T04:53:45;19.90;99.90
16666;DHT22;8446;50.998;6.250;2023-08-12T04:56:11;19.90;99.90
16666;DHT22;8446;50.998;6.250;2023-08-12T04:58:38;19.80;99.90
16666;DHT22;8446;50.998;6.250;2023-08-12T05:01:05;19.80;99.90
16666;DHT22;8446;50.998;6.250;2023-08-12T05:03:33;19.80;99.90
16666;DHT22;8446;50.998;6.250;2023-08-12T05:06:01;19.80;99.90
16666;DHT22;8446;50.998;6.250;2023-08-12T05:08:28;19.80;99.90
16666;DHT22;8446;50.998;6.250;2023-08-12T05:10:55;19.80;99.90
16666;DHT22;8446;50.998;6.250;2023-08-12T05:13:21;19.80;99.90
16666;DHT22;8446;50.998;6.250;2023-08-12T05:15:49;19.80;99.90
16666;DHT22;8446;50.998;6.250;2023-08-12T05:18:16;19.70;99.90
16666;DHT22;8446;50.998;6.250;2023-08-12T05:20:43;19.70;99.90
16666;DHT22;8446;50.998;6.250;2023-08-12T05:23:11;19.70;99.90
16666;DHT22;8446;50.998;6.250;2023-08-12T05:25:39;19.70;99.90
16666;DHT22;8446;50.998;6.250;2023-08-12T05:28:06;19.60;99.90
16666;DHT22;8446;50.998;6.250;2023-08-12T05:30:34;19.60;99.90
16666;DHT22;8446;50.998;6.250;2023-08-12T05:33:01;19.60;99.90
16666;DHT22;8446;50.998;6.250;2023-08-12T05:35:28;19.50;99.90
16666;DHT22;8446;50.998;6.250;2023-08-12T05:37:54;19.40;99.90
16666;DHT22;8446;50.998;6.250;2023-08-12T05:40:23;19.40;99.90
16666;DHT22;8446;50.998;6.250;2023-08-12T05:42:49;19.40;99.90
16666;DHT22;8446;50.998;6.250;2023-08-12T05:45:16;19.40;99.90
16666;DHT22;8446;50.998;6.250;2023-08-12T05:47:43;19.40;99.90
16666;DHT22;8446;50.998;6.250;2023-08-12T05:50:10;19.30;99.90
16666;DHT22;8446;50.998;6.250;2023-08-12T05:52:37;19.30;99.90
16666;DHT22;8446;50.998;6.250;2023-08-12T05:55:04;19.20;99.90
16666;DHT22;8446;50.998;6.250;2023-08-12T05:57:33;19.10;99.90
16666;DHT22;8446;50.998;6.250;2023-08-12T05:59:59;19.10;99.90
16666;DHT22;8446;50.998;6.250;2023-08-12T06:02:26;19.00;99.90
16666;DHT22;8446;50.998;6.250;2023-08-12T06:04:53;19.00;99.90
16666;DHT22;8446;50.998;6.250;2023-08-12T06:07:20;18.90;99.90
16666;DHT22;8446;50.998;6.250;2023-08-12T06:09:48;18.90;99.90
16666;DHT22;8446;50.998;6.250;2023-08-12T06:12:15;18.90;99.90
16666;DHT22;8446;50.998;6.250;2023-08-12T06:14:44;18.90;99.90
16666;DHT22;8446;50.998;6.250;2023-08-12T06:17:10;18.90;99.90
16666;DHT22;8446;50.998;6.250;2023-08-12T06:19:37;19.00;99.90
16666;DHT22;8446;50.998;6.250;2023-08-12T06:22:04;18.90;99.90
16666;DHT22;8446;50.998;6.250;2023-08-12T06:24:31;19.00;99.90
16666;DHT22;8446;50.998;6.250;2023-08-12T06:26:58;19.00;99.90
16666;DHT22;8446;50.998;6.250;2023-08-12T06:29:24;19.00;99.90
16666;DHT22;8446;50.998;6.250;2023-08-12T06:31:53;19.00;99.90
16666;DHT22;8446;50.998;6.250;2023-08-12T06:34:21;19.10;99.90
16666;DHT22;8446;50.998;6.250;2023-08-12T06:36:48;19.10;99.90
16666;DHT22;8446;50.998;6.250;2023-08-12T06:39:14;19.30;99.90
16666;DHT22;8446;50.998;6.250;2023-08-12T06:41:41;19.20;99.90
16666;DHT22;8446;50.998;6.250;2023-08-12T06:44:08;19.20;99.90
16666;DHT22;8446;50.998;6.250;2023-08-12T06:46:34;19.10;99.90
16666;DHT22;8446;50.998;6.250;2023-08-12T06:49:03;19.10;99.90
16666;DHT22;8446;50.998;6.250;2023-08-12T06:51:29;19.10;99.90
16666;DHT22;8446;50.998;6.250;2023-08-12T06:53:56;19.20;99.90
16666;DHT22;8446;50.998;6.250;2023-08-12T06:56:23;19.30;99.90
16666;DHT22;8446;50.998;6.250;2023-08-12T06:58:50;19.30;99.90
16666;DHT22;8446;50.998;6.250;2023-08-12T07:01:16;19.30;99.90
16666;DHT22;8446;50.998;6.250;2023-08-12T07:03:43;19.30;99.90
16666;DHT22;8446;50.998;6.250;2023-08-12T07:06:11;19.40;99.90
16666;DHT22;8446;50.998;6.250;2023-08-12T07:08:38;19.40;99.90
16666;DHT22;8446;50.998;6.250;2023-08-12T07:11:05;19.40;99.90
16666;DHT22;8446;50.998;6.250;2023-08-12T07:13:31;19.40;99.90
16666;DHT22;8446;50.998;6.250;2023-08-12T07:15:59;19.40;99.90
16666;DHT22;8446;50.998;6.250;2023-08-12T07:18:25;19.50;99.90
16666;DHT22;8446;50.998;6.250;2023-08-12T07:20:52;19.50;99.90
16666;DHT22;8446;50.998;6.250;2023-08-12T07:23:20;19.50;99.90
16666;DHT22;8446;50.998;6.250;2023-08-12T07:25:47;19.60;99.90
16666;DHT22;8446;50.998;6.250;2023-08-12T07:28:14;19.60;99.90
16666;DHT22;8446;50.998;6.250;2023-08-12T07:30:41;19.60;99.90
16666;DHT22;8446;50.998;6.250;2023-08-12T07:33:08;19.80;99.90
16666;DHT22;8446;50.998;6.250;2023-08-12T07:35:35;19.70;99.90
16666;DHT22;8446;50.998;6.250;2023-08-12T07:38:02;19.90;99.90
16666;DHT22;8446;50.998;6.250;2023-08-12T07:40:30;19.90;99.90
16666;DHT22;8446;50.998;6.250;2023-08-12T07:42:57;19.90;99.90
16666;DHT22;8446;50.998;6.250;2023-08-12T07:45:23;20.10;99.90
16666;DHT22;8446;50.998;6.250;2023-08-12T07:47:50;20.10;99.90
16666;DHT22;8446;50.998;6.250;2023-08-12T07:50:17;20.20;99.90
16666;DHT22;8446;50.998;6.250;2023-08-12T07:52:44;20.30;99.90
16666;DHT22;8446;50.998;6.250;2023-08-12T07:55:11;20.30;99.90
16666;DHT22;8446;50.998;6.250;2023-08-12T07:57:39;20.30;99.90
16666;DHT22;8446;50.998;6.250;2023-08-12T08:00:07;20.40;99.90
16666;DHT22;8446;50.998;6.250;2023-08-12T08:02:35;20.30;99.90
16666;DHT22;8446;50.998;6.250;2023-08-12T08:05:02;20.30;99.90
16666;DHT22;8446;50.998;6.250;2023-08-12T08:07:29;20.20;99.90
16666;DHT22;8446;50.998;6.250;2023-08-12T08:09:55;20.10;99.90
16666;DHT22;8446;50.998;6.250;2023-08-12T08:12:22;20.10;99.90
16666;DHT22;8446;50.998;6.250;2023-08-12T08:14:50;20.00;99.90
16666;DHT22;8446;50.998;6.250;2023-08-12T08:17:17;20.10;99.90
16666;DHT22;8446;50.998;6.250;2023-08-12T08:19:44;20.00;99.90
16666;DHT22;8446;50.998;6.250;2023-08-12T08:22:11;20.10;99.90
16666;DHT22;8446;50.998;6.250;2023-08-12T08:24:37;20.00;99.90
16666;DHT22;8446;50.998;6.250;2023-08-12T08:27:04;20.00;99.90
16666;DHT22;8446;50.998;6.250;2023-08-12T08:29:31;20.00;99.90
16666;DHT22;8446;50.998;6.250;2023-08-12T08:31:59;20.00;99.90
16666;DHT22;8446;50.998;6.250;2023-08-12T08:34:26;20.10;99.90
16666;DHT22;8446;50.998;6.250;2023-08-12T08:36:53;20.20;99.90
16666;DHT22;8446;50.998;6.250;2023-08-12T08:39:19;20.30;99.90
16666;DHT22;8446;50.998;6.250;2023-08-12T08:41:48;20.30;99.90
16666;DHT22;8446;50.998;6.250;2023-08-12T08:44:15;20.40;99.90
16666;DHT22;8446;50.998;6.250;2023-08-12T08:46:42;20.50;99.90
16666;DHT22;8446;50.998;6.250;2023-08-12T08:49:12;20.70;99.90
16666;DHT22;8446;50.998;6.250;2023-08-12T08:51:40;20.80;99.90
16666;DHT22;8446;50.998;6.250;2023-08-12T08:54:08;20.80;99.90
16666;DHT22;8446;50.998;6.250;2023-08-12T08:56:37;21.10;99.90
16666;DHT22;8446;50.998;6.250;2023-08-12T08:59:04;21.10;99.90
16666;DHT22;8446;50.998;6.250;2023-08-12T09:01:31;21.10;99.90
16666;DHT22;8446;50.998;6.250;2023-08-12T09:03:59;21.30;99.90
16666;DHT22;8446;50.998;6.250;2023-08-12T09:06:28;21.10;99.90
16666;DHT22;8446;50.998;6.250;2023-08-12T09:08:56;21.00;99.90
16666;DHT22;8446;50.998;6.250;2023-08-12T09:11:23;21.10;99.90
16666;DHT22;8446;50.998;6.250;2023-08-12T09:13:50;21.30;99.90
16666;DHT22;8446;50.998;6.250;2023-08-12T09:16:17;21.60;99.90
16666;DHT22;8446;50.998;6.250;2023-08-12T09:18:44;21.60;99.90
16666;DHT22;8446;50.998;6.250;2023-08-12T09:21:11;21.80;99.90
16666;DHT22;8446;50.998;6.250;2023-08-12T09:23:40;21.70;99.90
16666;DHT22;8446;50.998;6.250;2023-08-12T09:26:15;21.70;99.90
16666;DHT22;8446;50.998;6.250;2023-08-12T09:28:42;21.80;99.90
16666;DHT22;8446;50.998;6.250;2023-08-12T09:31:21;22.00;99.90
16666;DHT22;8446;50.998;6.250;2023-08-12T09:33:49;21.90;99.90
16666;DHT22;8446;50.998;6.250;2023-08-12T09:36:16;21.80;99.90
16666;DHT22;8446;50.998;6.250;2023-08-12T09:38:44;21.70;99.90
16666;DHT22;8446;50.998;6.250;2023-08-12T09:41:11;21.60;99.90
16666;DHT22;8446;50.998;6.250;2023-08-12T09:43:40;21.60;99.90
16666;DHT22;8446;50.998;6.250;2023-08-12T09:46:10;21.60;99.90
16666;DHT22;8446;50.998;6.250;2023-08-12T09:48:38;21.60;99.90
16666;DHT22;8446;50.998;6.250;2023-08-12T09:51:05;21.70;99.90
16666;DHT22;8446;50.998;6.250;2023-08-12T09:53:32;21.70;99.90
16666;DHT22;8446;50.998;6.250;2023-08-12T09:56:06;21.70;99.90
16666;DHT22;8446;50.998;6.250;2023-08-12T09:58:35;21.60;99.90
16666;DHT22;8446;50.998;6.250;2023-08-12T10:01:03;21.40;99.90
16666;DHT22;8446;50.998;6.250;2023-08-12T10:03:33;21.20;99.90
16666;DHT22;8446;50.998;6.250;2023-08-12T10:06:00;21.10;99.90
16666;DHT22;8446;50.998;6.250;2023-08-12T10:08:29;20.90;99.90
16666;DHT22;8446;50.998;6.250;2023-08-12T10:10:56;20.90;99.90
16666;DHT22;8446;50.998;6.250;2023-08-12T10:13:24;20.80;99.90
16666;DHT22;8446;50.998;6.250;2023-08-12T10:15:51;20.70;99.90
16666;DHT22;8446;50.998;6.250;2023-08-12T10:18:18;20.60;99.90
16666;DHT22;8446;50.998;6.250;2023-08-12T10:20:47;20.60;99.90
16666;DHT22;8446;50.998;6.250;2023-08-12T10:23:16;20.50;99.90
16666;DHT22;8446;50.998;6.250;2023-08-12T10:25:44;20.50;99.90
16666;DHT22;8446;50.998;6.250;2023-08-12T10:28:11;20.40;99.90
16666;DHT22;8446;50.998;6.250;2023-08-12T10:30:41;20.40;99.90
16666;DHT22;8446;50.998;6.250;2023-08-12T10:33:08;20.50;99.90
16666;DHT22;8446;50.998;6.250;2023-08-12T10:35:44;20.50;99.90
16666;DHT22;8446;50.998;6.250;2023-08-12T10:38:13;20.60;99.90
16666;DHT22;8446;50.998;6.250;2023-08-12T10:40:41;20.80;99.90
16666;DHT22;8446;50.998;6.250;2023-08-12T10:43:08;20.80;99.90
16666;DHT22;8446;50.998;6.250;2023-08-12T10:45:44;20.90;99.90
16666;DHT22;8446;50.998;6.250;2023-08-12T10:48:17;20.80;99.90
16666;DHT22;8446;50.998;6.250;2023-08-12T10:50:49;21.20;99.90
16666;DHT22;8446;50.998;6.250;2023-08-12T10:53:24;21.10;99.90
16666;DHT22;8446;50.998;6.250;2023-08-12T10:55:55;21.50;99.90
16666;DHT22;8446;50.998;6.250;2023-08-12T10:58:33;21.50;99.90
16666;DHT22;8446;50.998;6.250;2023-08-12T11:01:01;21.60;99.90
16666;DHT22;8446;50.998;6.250;2023-08-12T11:03:32;21.40;99.90
16666;DHT22;8446;50.998;6.250;2023-08-12T11:05:59;21.70;99.90
16666;DHT22;8446;50.998;6.250;2023-08-12T11:08:27;21.60;99.90
16666;DHT22;8446;50.998;6.250;2023-08-12T11:10:55;21.80;99.90
16666;DHT22;8446;50.998;6.250;2023-08-12T11:13:26;21.80;99.90
16666;DHT22;8446;50.998;6.250;2023-08-12T11:16:07;21.70;99.90
16666;DHT22;8446;50.998;6.250;2023-08-12T11:18:34;21.60;99.90
16666;DHT22;8446;50.998;6.250;2023-08-12T11:21:01;21.60;99.90
16666;DHT22;8446;50.998;6.250;2023-08-12T11:23:29;21.80;99.90
16666;DHT22;8446;50.998;6.250;2023-08-12T11:25:58;21.90;99.90
16666;DHT22;8446;50.998;6.250;2023-08-12T11:28:25;21.90;99.90
16666;DHT22;8446;50.998;6.250;2023-08-12T11:30:51;22.00;99.90
16666;DHT22;8446;50.998;6.250;2023-08-12T11:33:20;21.70;99.90
16666;DHT22;8446;50.998;6.250;2023-08-12T11:35:47;21.80;99.90
16666;DHT22;8446;50.998;6.250;2023-08-12T11:38:15;21.90;99.90
16666;DHT22;8446;50.998;6.250;2023-08-12T11:40:42;21.70;99.90
16666;DHT22;8446;50.998;6.250;2023-08-12T11:43:09;21.60;99.90
16666;DHT22;8446;50.998;6.250;2023-08-12T11:45:36;21.70;99.90
16666;DHT22;8446;50.998;6.250;2023-08-12T11:48:04;22.20;99.90
16666;DHT22;8446;50.998;6.250;2023-08-12T11:50:33;22.50;99.90
16666;DHT22;8446;50.998;6.250;2023-08-12T11:53:00;22.40;99.90
16666;DHT22;8446;50.998;6.250;2023-08-12T11:55:27;22.40;99.90
16666;DHT22;8446;50.998;6.250;2023-08-12T11:57:54;21.70;99.90
16666;DHT22;8446;50.998;6.250;2023-08-12T12:00:21;20.80;99.90
16666;DHT22;8446;50.998;6.250;2023-08-12T12:02:50;20.50;99.90
16666;DHT22;8446;50.998;6.250;2023-08-12T12:05:18;20.10;99.90
16666;DHT22;8446;50.998;6.250;2023-08-12T12:07:48;20.00;99.90
16666;DHT22;8446;50.998;6.250;2023-08-12T12:10:18;19.90;99.90
16666;DHT22;8446;50.998;6.250;2023-08-12T12:12:46;20.00;99.90
16666;DHT22;8446;50.998;6.250;2023-08-12T12:15:13;20.00;99.90
16666;DHT22;8446;50.998;6.250;2023-08-12T12:17:41;20.10;99.90
16666;DHT22;8446;50.998;6.250;2023-08-12T12:20:08;20.10;99.90
16666;DHT22;8446;50.998;6.250;2023-08-12T12:22:37;20.10;99.90
16666;DHT22;8446;50.998;6.250;2023-08-12T12:25:10;20.10;99.90
16666;DHT22;8446;50.998;6.250;2023-08-12T12:27:38;20.00;99.90
16666;DHT22;8446;50.998;6.250;2023-08-12T12:30:07;20.00;99.90
16666;DHT22;8446;50.998;6.250;2023-08-12T12:32:34;19.90;99.90
16666;DHT22;8446;50.998;6.250;2023-08-12T12:35:01;19.90;99.90
16666;DHT22;8446;50.998;6.250;2023-08-12T12:37:28;20.10;99.90
16666;DHT22;8446;50.998;6.250;2023-08-12T12:39:55;20.00;99.90
16666;DHT22;8446;50.998;6.250;2023-08-12T12:42:24;19.70;99.90
16666;DHT22;8446;50.998;6.250;2023-08-12T12:44:50;19.60;99.90
16666;DHT22;8446;50.998;6.250;2023-08-12T12:47:17;19.60;99.90
16666;DHT22;8446;50.998;6.250;2023-08-12T12:49:44;19.70;99.90
16666;DHT22;8446;50.998;6.250;2023-08-12T12:52:11;19.60;99.90
16666;DHT22;8446;50.998;6.250;2023-08-12T12:54:38;19.90;99.90
16666;DHT22;8446;50.998;6.250;2023-08-12T12:57:05;20.00;99.90
16666;DHT22;8446;50.998;6.250;2023-08-12T12:59:33;20.40;99.90
16666;DHT22;8446;50.998;6.250;2023-08-12T13:02:00;20.50;99.90
16666;DHT22;8446;50.998;6.250;2023-08-12T13:04:27;20.80;99.90
16666;DHT22;8446;50.998;6.250;2023-08-12T13:06:54;20.80;99.90
16666;DHT22;8446;50.998;6.250;2023-08-12T13:09:20;21.00;99.90
16666;DHT22;8446;50.998;6.250;2023-08-12T13:11:47;21.00;99.90
16666;DHT22;8446;50.998;6.250;2023-08-12T13:14:14;21.10;99.90
16666;DHT22;8446;50.998;6.250;2023-08-12T13:16:43;21.40;99.90
16666;DHT22;8446;50.998;6.250;2023-08-12T13:19:10;21.50;99.90
16666;DHT22;8446;50.998;6.250;2023-08-12T13:21:37;21.90;99.90
16666;DHT22;8446;50.998;6.250;2023-08-12T13:24:04;22.00;99.90
16666;DHT22;8446;50.998;6.250;2023-08-12T13:26:31;22.00;99.90
16666;DHT22;8446;50.998;6.250;2023-08-12T13:28:58;22.10;99.90
16666;DHT22;8446;50.998;6.250;2023-08-12T13:31:25;22.00;99.90
16666;DHT22;8446;50.998;6.250;2023-08-12T13:33:53;21.90;99.90
16666;DHT22;8446;50.998;6.250;2023-08-12T13:36:19;21.40;99.90
16666;DHT22;8446;50.998;6.250;2023-08-12T13:38:46;21.70;99.90
16666;DHT22;8446;50.998;6.250;2023-08-12T13:41:13;21.70;99.90
16666;DHT22;8446;50.998;6.250;2023-08-12T13:43:40;21.90;99.90
16666;DHT22;8446;50.998;6.250;2023-08-12T13:46:07;22.00;99.90
16666;DHT22;8446;50.998;6.250;2023-08-12T13:48:34;21.90;99.90
16666;DHT22;8446;50.998;6.250;2023-08-12T13:51:02;22.10;99.90
16666;DHT22;8446;50.998;6.250;2023-08-12T13:53:29;22.30;99.90
16666;DHT22;8446;50.998;6.250;2023-08-12T13:55:56;22.30;99.90
16666;DHT22;8446;50.998;6.250;2023-08-12T13:58:23;21.70;99.90
16666;DHT22;8446;50.998;6.250;2023-08-12T14:00:49;21.50;99.90
16666;DHT22;8446;50.998;6.250;2023-08-12T14:03:16;21.50;99.90
16666;DHT22;8446;50.998;6.250;2023-08-12T14:05:44;21.50;99.90
16666;DHT22;8446;50.998;6.250;2023-08-12T14:08:12;21.60;99.90
16666;DHT22;8446;50.998;6.250;2023-08-12T14:10:39;21.80;99.90
16666;DHT22;8446;50.998;6.250;2023-08-12T14:13:06;22.00;99.90
16666;DHT22;8446;50.998;6.250;2023-08-12T14:15:33;22.60;99.90
16666;DHT22;8446;50.998;6.250;2023-08-12T14:18:00;22.80;99.90
16666;DHT22;8446;50.998;6.250;2023-08-12T14:20:27;22.50;99.90
16666;DHT22;8446;50.998;6.250;2023-08-12T14:22:54;22.40;99.90
16666;DHT22;8446;50.998;6.250;2023-08-12T14:25:22;23.00;99.90
16666;DHT22;8446;50.998;6.250;2023-08-12T14:27:48;23.30;99.90
16666;DHT22;8446;50.998;6.250;2023-08-12T14:30:18;23.40;99.90
16666;DHT22;8446;50.998;6.250;2023-08-12T14:32:44;23.30;99.90
16666;DHT22;8446;50.998;6.250;2023-08-12T14:35:11;23.20;99.90
16666;DHT22;8446;50.998;6.250;2023-08-12T14:37:38;23.40;99.90
16666;DHT22;8446;50.998;6.250;2023-08-12T14:40:06;23.20;99.90
16666;DHT22;8446;50.998;6.250;2023-08-12T14:42:35;23.40;99.90
16666;DHT22;8446;50.998;6.250;2023-08-12T14:45:02;23.40;99.90
16666;DHT22;8446;50.998;6.250;2023-08-12T14:47:28;23.20;99.90
16666;DHT22;8446;50.998;6.250;2023-08-12T14:49:55;23.20;99.90
16666;DHT22;8446;50.998;6.250;2023-08-12T14:52:22;23.20;99.90
16666;DHT22;8446;50.998;6.250;2023-08-12T14:54:49;23.30;99.90
16666;DHT22;8446;50.998;6.250;2023-08-12T14:57:16;23.40;99.90
16666;DHT22;8446;50.998;6.250;2023-08-12T14:59:44;23.70;99.90
16666;DHT22;8446;50.998;6.250;2023-08-12T15:02:15;23.90;99.90
16666;DHT22;8446;50.998;6.250;2023-08-12T15:04:42;23.70;99.90
16666;DHT22;8446;50.998;6.250;2023-08-12T15:07:09;23.40;99.90
16666;DHT22;8446;50.998;6.250;2023-08-12T15:09:36;23.30;99.90
16666;DHT22;8446;50.998;6.250;2023-08-12T15:12:03;23.40;99.90
16666;DHT22;8446;50.998;6.250;2023-08-12T15:14:30;23.30;99.90
16666;DHT22;8446;50.998;6.250;2023-08-12T15:16:58;23.20;99.90
16666;DHT22;8446;50.998;6.250;2023-08-12T15:19:25;22.80;99.90
16666;DHT22;8446;50.998;6.250;2023-08-12T15:21:51;23.10;99.90
16666;DHT22;8446;50.998;6.250;2023-08-12T15:24:18;23.80;99.90
16666;DHT22;8446;50.998;6.250;2023-08-12T15:26:45;23.80;99.90
16666;DHT22;8446;50.998;6.250;2023-08-12T15:29:12;23.30;99.90
16666;DHT22;8446;50.998;6.250;2023-08-12T15:31:39;23.40;99.90
16666;DHT22;8446;50.998;6.250;2023-08-12T15:34:07;23.90;99.90
16666;DHT22;8446;50.998;6.250;2023-08-12T15:36:34;23.90;99.90
16666;DHT22;8446;50.998;6.250;2023-08-12T15:39:02;24.10;99.90
16666;DHT22;8446;50.998;6.250;2023-08-12T15:41:29;23.80;99.90
16666;DHT22;8446;50.998;6.250;2023-08-12T15:43:55;23.80;99.90
16666;DHT22;8446;50.998;6.250;2023-08-12T15:46:22;23.80;99.90